Time;durP1;ratioP1;P1;durP2;ratioP2;P2;SDS_P1;SDS_P2;PMS_P1;PMS_P2;Temp;Humidity;BMP_temperature;BMP_pressure;BME280_temperature;BME280_humidity;BME280_pressure;Samples;Min_cycle;Max_cycle;Signal;HPM_P1;HPM_P2
2020/12/27 00:01:29;;;;;;;0.00;0.00;;;;;;;-2.96;100.00;101314.58;1674313;84;21214;-47
2020/12/27 00:03:57;;;;;;;0.00;0.00;;;;;;;-3.01;100.00;101323.62;1698642;82;21246;-47
2020/12/27 00:06:27;;;;;;;0.13;0.13;;;;;;;-3.08;100.00;101328.28;1680684;83;21458;-49
2020/12/27 00:08:54;;;;;;;0.10;0.10;;;;;;;-3.10;100.00;101332.95;1705036;81;21119;-47
2020/12/27 00:11:22;;;;;;;0.30;0.30;;;;;;;-3.15;100.00;101335.30;1752044;81;21143;-50
2020/12/27 00:13:49;;;;;;;0.00;0.00;;;;;;;-3.18;100.00;101338.32;1699050;82;21174;-48
2020/12/27 00:16:25;;;;;;;0.47;0.47;;;;;;;-3.22;100.00;101334.30;1723159;82;21546;-47
2020/12/27 00:18:52;;;;;;;0.10;0.10;;;;;;;-3.24;100.00;101338.97;1699857;83;21589;-50
2020/12/27 00:21:19;;;;;;;0.08;0.08;;;;;;;-3.23;100.00;101337.98;1673453;84;21142;-48
2020/12/27 00:23:47;;;;;;;1.07;0.53;;;;;;;-3.21;100.00;101343.15;1694873;83;21178;-47
2020/12/27 00:26:17;;;;;;;0.75;0.75;;;;;;;-3.22;100.00;101344.16;1733865;82;21187;-47
2020/12/27 00:28:44;;;;;;;0.00;0.00;;;;;;;-3.25;100.00;101339.98;1709210;83;21147;-47
2020/12/27 00:31:17;;;;;;;0.13;0.13;;;;;;;-3.27;100.00;101337.98;1692416;84;21129;-47
2020/12/27 00:33:45;;;;;;;0.10;0.10;;;;;;;-3.31;100.00;101336.16;1690912;83;21158;-49
2020/12/27 00:36:20;;;;;;;0.10;0.10;;;;;;;-3.32;100.00;101338.98;1669060;84;21152;-48
2020/12/27 00:38:47;;;;;;;0.00;0.00;;;;;;;-3.34;100.00;101332.96;1697653;83;21151;-47
2020/12/27 00:41:26;;;;;;;0.00;0.00;;;;;;;-3.36;100.00;101337.16;1728170;82;21131;-48
2020/12/27 00:43:53;;;;;;;0.10;0.10;;;;;;;-3.40;100.00;101338.98;1716057;82;21493;-47
2020/12/27 00:46:21;;;;;;;0.20;0.20;;;;;;;-3.46;100.00;101344.50;1682369;83;21457;-47
2020/12/27 00:48:48;;;;;;;0.10;0.10;;;;;;;-3.52;100.00;101341.97;1718010;83;21259;-48
2020/12/27 00:51:21;;;;;;;0.00;0.00;;;;;;;-3.58;100.00;101347.98;1693640;84;21159;-47
2020/12/27 00:53:49;;;;;;;0.10;0.10;;;;;;;-3.63;100.00;101348.98;1718680;83;21125;-47
2020/12/27 00:56:18;;;;;;;0.00;0.00;;;;;;;-3.69;100.00;101349.62;1681209;83;21164;-48
2020/12/27 00:58:50;;;;;;;0.20;0.20;;;;;;;-3.74;100.00;101346.61;1672509;83;21184;-48
2020/12/27 01:01:18;;;;;;;0.00;0.00;;;;;;;-3.79;100.00;101344.42;1690802;83;21181;-48
2020/12/27 01:03:47;;;;;;;2.05;0.42;;;;;;;-3.83;100.00;101352.45;1707764;82;21153;-49
2020/12/27 01:06:24;;;;;;;0.00;0.00;;;;;;;-3.87;100.00;101351.59;1696993;84;21199;-47
2020/12/27 01:08:58;;;;;;;0.10;0.10;;;;;;;-3.83;100.00;101355.59;1832021;76;27273;-48
2020/12/27 01:11:26;;;;;;;0.10;0.10;;;;;;;-3.85;100.00;101363.78;1753264;80;21114;-47
2020/12/27 01:13:54;;;;;;;0.10;0.10;;;;;;;-3.81;100.00;101360.27;1776819;80;21135;-47
2020/12/27 01:16:22;;;;;;;0.70;0.70;;;;;;;-3.81;100.00;101360.27;1772113;80;21181;-47
2020/12/27 01:18:50;;;;;;;0.10;0.10;;;;;;;-3.80;100.00;101361.97;1784564;78;21588;-48
2020/12/27 01:21:23;;;;;;;0.00;0.00;;;;;;;-3.79;100.00;101364.95;1755777;80;21145;-47
2020/12/27 01:23:51;;;;;;;0.10;0.10;;;;;;;-3.80;100.00;101361.46;1783189;80;21208;-47
2020/12/27 01:26:31;;;;;;;0.00;0.00;;;;;;;-3.80;100.00;101366.80;1762497;80;21146;-46
2020/12/27 01:28:59;;;;;;;0.10;0.10;;;;;;;-3.78;100.00;101362.64;1755328;80;21237;-47
2020/12/27 01:31:26;;;;;;;0.10;0.10;;;;;;;-3.74;100.00;101361.30;1755180;80;21110;-47
2020/12/27 01:33:55;;;;;;;0.10;0.10;;;;;;;-3.69;100.00;101370.98;1767972;80;21415;-49
2020/12/27 01:36:31;;;;;;;1.07;0.65;;;;;;;-3.62;100.00;101373.34;1764577;80;21406;-46
2020/12/27 01:39:00;;;;;;;0.00;0.00;;;;;;;-3.58;100.00;101371.20;1762517;80;21225;-48
2020/12/27 01:41:28;;;;;;;0.08;0.08;;;;;;;-3.53;100.00;101375.05;1765541;80;21129;-49
2020/12/27 01:44:06;;;;;;;1.67;0.62;;;;;;;-3.48;100.00;101374.05;1773621;80;21261;-49
2020/12/27 01:46:36;;;;;;;0.72;0.30;;;;;;;-3.44;100.00;101371.04;1780265;80;21118;-50
2020/12/27 01:49:06;;;;;;;0.15;0.15;;;;;;;-3.41;100.00;101385.40;1754766;81;21134;-50
2020/12/27 01:51:34;;;;;;;0.57;0.57;;;;;;;-3.41;100.00;101390.27;1755780;80;21138;-51
2020/12/27 01:54:02;;;;;;;0.10;0.10;;;;;;;-3.40;100.00;101399.12;1778637;80;21154;-49
2020/12/27 01:56:41;;;;;;;0.37;0.37;;;;;;;-3.33;100.00;101397.46;1846889;76;26273;-48
2020/12/27 01:59:18;;;;;;;0.10;0.10;;;;;;;-3.37;100.00;101400.95;1788326;78;21078;-48
2020/12/27 02:01:47;;;;;;;0.30;0.30;;;;;;;-3.36;100.00;101399.10;1816171;78;21415;-46
2020/12/27 02:04:43;;;;;;;0.87;0.87;;;;;;;-3.34;100.00;101392.63;1825025;76;28245;-47
2020/12/27 02:07:12;;;;;;;0.00;0.00;;;;;;;-3.37;100.00;101399.61;1707252;82;21634;-46
2020/12/27 02:10:03;;;;;;;0.00;0.00;;;;;;;-3.35;100.00;101399.45;1808882;76;27631;-46
2020/12/27 02:12:32;;;;;;;0.53;0.33;;;;;;;-3.41;100.00;101406.78;1773512;80;21536;-46
2020/12/27 02:15:00;;;;;;;0.13;0.13;;;;;;;-3.44;100.00;101418.63;1776268;80;21548;-48
2020/12/27 02:17:39;;;;;;;0.20;0.20;;;;;;;-3.44;100.00;101417.80;1822564;76;26779;-46
2020/12/27 02:20:08;;;;;;;0.10;0.10;;;;;;;-3.53;100.00;101415.12;1780178;80;21154;-46
2020/12/27 02:22:48;;;;;;;0.10;0.10;;;;;;;-3.56;100.00;101411.92;1779015;80;21781;-46
2020/12/27 02:25:27;;;;;;;0.00;0.00;;;;;;;-3.59;100.00;101412.26;1781249;80;21437;-46
2020/12/27 02:27:57;;;;;;;0.13;0.13;;;;;;;-3.63;100.00;101418.44;1780826;80;21114;-46
2020/12/27 02:30:24;;;;;;;0.00;0.00;;;;;;;-3.65;100.00;101420.44;1768697;80;21089;-48
2020/12/27 02:32:52;;;;;;;0.08;0.08;;;;;;;-3.67;100.00;101421.09;1786035;80;21146;-48
2020/12/27 02:35:20;;;;;;;0.13;0.13;;;;;;;-3.66;100.00;101422.75;1756882;80;21134;-47
2020/12/27 02:37:49;;;;;;;0.10;0.10;;;;;;;-3.67;100.00;101425.92;1754605;81;21129;-47
2020/12/27 02:40:17;;;;;;;0.35;0.35;;;;;;;-3.65;100.00;101424.95;1778634;80;21106;-47
2020/12/27 02:43:03;;;;;;;0.10;0.10;;;;;;;-3.65;100.00;101427.62;1786175;80;21114;-45
2020/12/27 02:45:32;;;;;;;0.10;0.10;;;;;;;-3.63;100.00;101430.46;1753371;80;21197;-46
2020/12/27 02:48:18;;;;;;;0.30;0.30;;;;;;;-3.62;100.00;101432.12;1772957;80;21142;-46
2020/12/27 02:50:48;;;;;;;0.03;0.03;;;;;;;-3.61;100.00;101439.16;1785422;80;21098;-47
2020/12/27 02:53:16;;;;;;;0.20;0.20;;;;;;;-3.60;100.00;101440.82;1772992;80;21119;-46
2020/12/27 02:55:43;;;;;;;0.03;0.03;;;;;;;-3.58;100.00;101440.16;1755530;80;21217;-48
2020/12/27 02:58:10;;;;;;;0.00;0.00;;;;;;;-3.57;100.00;101444.49;1786055;80;21150;-46
2020/12/27 03:00:39;;;;;;;0.00;0.00;;;;;;;-3.57;100.00;101453.84;1785980;80;21146;-46
2020/12/27 03:03:24;;;;;;;0.00;0.00;;;;;;;-3.56;100.00;101448.00;1780522;80;21142;-47
2020/12/27 03:05:53;;;;;;;0.00;0.00;;;;;;;-3.56;100.00;101445.33;1755674;80;21682;-47
2020/12/27 03:08:21;;;;;;;0.00;0.00;;;;;;;-3.57;100.00;101444.49;1785957;80;21110;-48
2020/12/27 03:11:00;;;;;;;0.10;0.10;;;;;;;-3.51;100.00;101457.22;1843621;76;27712;-46
2020/12/27 03:13:28;;;;;;;0.10;0.10;;;;;;;-3.55;100.00;101462.55;1776690;79;21151;-50
2020/12/27 03:15:57;;;;;;;0.00;0.00;;;;;;;-3.54;100.00;101461.53;1780206;78;21482;-49
2020/12/27 03:18:35;;;;;;;0.10;0.10;;;;;;;-3.53;100.00;101461.88;1826891;78;21121;-51
2020/12/27 03:21:04;;;;;;;0.23;0.20;;;;;;;-3.52;100.00;101467.55;1823362;78;21161;-49
2020/12/27 03:23:32;;;;;;;0.37;0.37;;;;;;;-3.51;100.00;101469.72;1798642;78;22069;-49
2020/12/27 03:26:04;;;;;;;0.10;0.10;;;;;;;-3.52;100.00;101463.55;1810733;78;21123;-49
2020/12/27 03:28:32;;;;;;;0.17;0.17;;;;;;;-3.51;100.00;101465.71;1787750;79;21127;-49
2020/12/27 03:31:01;;;;;;;0.85;0.30;;;;;;;-3.52;100.00;101471.56;1783711;79;21506;-50
2020/12/27 03:33:30;;;;;;;0.00;0.00;;;;;;;-3.55;100.00;101469.22;1790045;79;21528;-50
2020/12/27 03:36:00;;;;;;;0.08;0.08;;;;;;;-3.57;100.00;101476.55;1810427;79;21111;-48
2020/12/27 03:38:29;;;;;;;0.30;0.30;;;;;;;-3.57;100.00;101484.58;1814576;79;21123;-51
2020/12/27 03:41:17;;;;;;;0.30;0.30;;;;;;;-3.57;100.00;101485.91;1886418;76;28613;-47
2020/12/27 03:43:49;;;;;;;0.10;0.10;;;;;;;-3.62;100.00;101487.40;1780283;80;21129;-46
2020/12/27 03:46:18;;;;;;;0.10;0.10;;;;;;;-3.65;100.00;101493.91;1771770;79;21151;-48
2020/12/27 03:49:04;;;;;;;0.17;0.17;;;;;;;-3.66;100.00;101493.55;1758497;81;21147;-47
2020/12/27 03:51:39;;;;;;;1.35;0.33;;;;;;;-3.70;100.00;101486.36;1757824;80;21491;-47
2020/12/27 03:54:07;;;;;;;2.47;0.75;;;;;;;-3.70;100.00;101487.70;1785628;80;21663;-46
2020/12/27 03:56:53;;;;;;;0.00;0.00;;;;;;;-3.64;100.00;101494.73;1840272;76;24771;-47
2020/12/27 03:59:39;;;;;;;0.30;0.30;;;;;;;-3.71;100.00;101498.53;1772508;80;21130;-48
2020/12/27 04:02:08;;;;;;;0.00;0.00;;;;;;;-3.70;100.00;101506.40;1765656;80;21599;-47
2020/12/27 04:04:36;;;;;;;0.05;0.05;;;;;;;-3.69;100.00;101509.90;1785886;80;21172;-46
2020/12/27 04:07:06;;;;;;;0.08;0.08;;;;;;;-3.68;100.00;101515.60;1765383;80;21114;-47
2020/12/27 04:09:35;;;;;;;0.03;0.03;;;;;;;-3.69;100.00;101515.24;1783810;80;21126;-48
2020/12/27 04:12:04;;;;;;;0.03;0.03;;;;;;;-3.71;100.00;101520.77;1755636;80;21174;-45
2020/12/27 04:14:32;;;;;;;0.10;0.10;;;;;;;-3.73;100.00;101520.59;1786177;80;21095;-47
2020/12/27 04:16:59;;;;;;;0.00;0.00;;;;;;;-3.75;100.00;101510.05;1765777;80;21146;-48
2020/12/27 04:19:27;;;;;;;0.00;0.00;;;;;;;-3.77;100.00;101519.22;1760986;80;21742;-46
2020/12/27 04:21:59;;;;;;;0.00;0.00;;;;;;;-3.79;100.00;101527.38;1783227;80;21114;-46
2020/12/27 04:24:28;;;;;;;0.03;0.03;;;;;;;-3.78;100.00;101529.58;1785016;80;21127;-49
2020/12/27 04:26:56;;;;;;;0.10;0.10;;;;;;;-3.79;100.00;101542.58;1785988;80;21169;-49
2020/12/27 04:29:24;;;;;;;0.00;0.00;;;;;;;-3.80;100.00;101536.91;1780536;80;21626;-48
2020/12/27 04:31:53;;;;;;;0.00;0.00;;;;;;;-3.81;100.00;101539.22;1785495;80;21149;-49
2020/12/27 04:34:29;;;;;;;0.00;0.00;;;;;;;-3.83;100.00;101544.73;1781571;80;21174;-50
2020/12/27 04:36:56;;;;;;;0.42;0.42;;;;;;;-3.84;100.00;101550.23;1785289;80;21162;-49
2020/12/27 04:39:26;;;;;;;0.15;0.15;;;;;;;-3.86;100.00;101546.37;1783503;80;21145;-50
2020/12/27 04:41:53;;;;;;;0.08;0.08;;;;;;;-3.87;100.00;101542.54;1783987;80;21617;-48
2020/12/27 04:44:32;;;;;;;0.10;0.10;;;;;;;-3.90;100.00;101541.85;1753516;81;21150;-49
2020/12/27 04:47:02;;;;;;;0.13;0.13;;;;;;;-3.93;100.00;101539.51;1767089;80;21102;-48
2020/12/27 04:49:44;;;;;;;0.10;0.10;;;;;;;-3.93;100.00;101535.50;1851687;76;25290;-46
2020/12/27 04:52:12;;;;;;;0.10;0.10;;;;;;;-3.98;100.00;101543.15;1824874;78;21101;-47
2020/12/27 04:54:54;;;;;;;0.00;0.00;;;;;;;-3.95;100.00;101544.16;1829520;75;26286;-46
2020/12/27 04:57:34;;;;;;;0.00;0.00;;;;;;;-4.00;100.00;101551.81;1728376;81;21155;-47
2020/12/27 05:00:07;;;;;;;0.00;0.00;;;;;;;-4.05;100.00;101545.27;1720730;81;21567;-48
2020/12/27 05:02:49;;;;;;;0.83;0.83;;;;;;;-4.03;100.00;101544.59;1871133;75;29581;-46
2020/12/27 05:05:17;;;;;;;0.00;0.00;;;;;;;-4.03;100.00;101549.45;1822581;77;21126;-49
2020/12/27 05:07:47;;;;;;;0.10;0.10;;;;;;;-4.00;100.00;101557.15;1757524;80;21120;-51
2020/12/27 05:10:20;;;;;;;0.00;0.00;;;;;;;-4.01;100.00;101558.13;1789724;78;26264;-49
2020/12/27 05:12:50;;;;;;;0.23;0.23;;;;;;;-4.06;100.00;101564.43;1789710;78;21121;-49
2020/12/27 05:15:18;;;;;;;0.42;0.42;;;;;;;-4.10;100.00;101563.09;1767879;80;21129;-51
2020/12/27 05:17:47;;;;;;;0.10;0.10;;;;;;;-4.13;100.00;101554.89;1724864;81;21108;-50
2020/12/27 05:20:18;;;;;;;0.90;0.82;;;;;;;-4.13;100.00;101557.56;1756170;81;21627;-50
2020/12/27 05:22:47;;;;;;;0.10;0.10;;;;;;;-4.16;100.00;101555.69;1742929;81;21169;-48
2020/12/27 05:25:29;;;;;;;0.07;0.07;;;;;;;-4.15;100.00;101574.73;1859930;76;26280;-48
2020/12/27 05:28:07;;;;;;;0.10;0.10;;;;;;;-4.22;100.00;101589.19;1786800;80;21178;-46
2020/12/27 05:30:52;;;;;;;0.10;0.10;;;;;;;-4.22;100.00;101589.69;1836491;76;27245;-46
2020/12/27 05:33:40;;;;;;;4.67;0.53;;;;;;;-4.29;100.00;101593.97;1823949;77;21095;-48
2020/12/27 05:36:11;;;;;;;0.30;0.30;;;;;;;-4.30;100.00;101592.27;1817251;78;21126;-46
2020/12/27 05:38:47;;;;;;;0.00;0.00;;;;;;;-4.32;100.00;101591.94;1820929;78;21123;-47
2020/12/27 05:41:33;;;;;;;0.75;0.20;;;;;;;-4.33;100.00;101592.95;1794485;78;21122;-48
2020/12/27 05:44:16;;;;;;;0.10;0.10;;;;;;;-4.30;100.00;101600.27;1839667;76;25332;-51
2020/12/27 05:46:44;;;;;;;0.00;0.00;;;;;;;-4.37;100.00;101614.25;1779131;80;21130;-49
2020/12/27 05:49:14;;;;;;;0.10;0.10;;;;;;;-4.38;100.00;101615.22;1753194;81;21182;-48
2020/12/27 05:51:52;;;;;;;0.00;0.00;;;;;;;-4.37;100.00;101618.75;1722912;80;21460;-49
2020/12/27 05:54:34;;;;;;;0.05;0.05;;;;;;;-4.35;100.00;101625.61;1781779;80;21094;-49
2020/12/27 05:57:04;;;;;;;0.00;0.00;;;;;;;-4.35;100.00;101620.27;1768114;80;21145;-49
2020/12/27 05:59:35;;;;;;;0.82;0.57;;;;;;;-4.31;100.00;101631.47;1781432;80;21146;-49
2020/12/27 06:02:05;;;;;;;1.10;0.45;;;;;;;-4.29;100.00;101634.83;1785042;80;21526;-49
2020/12/27 06:04:45;;;;;;;0.00;0.00;;;;;;;-4.28;100.00;101641.00;1773339;80;21163;-48
2020/12/27 06:07:34;;;;;;;0.15;0.15;;;;;;;-4.28;100.00;101637.00;1750815;80;21202;-48
2020/12/27 06:10:16;;;;;;;0.57;0.57;;;;;;;-4.25;100.00;101650.03;1766720;80;21406;-49
2020/12/27 06:13:12;;;;;;;0.00;0.00;;;;;;;-4.23;100.00;101656.06;1770480;80;21529;-50
2020/12/27 06:15:48;;;;;;;0.10;0.10;;;;;;;-4.21;100.00;101654.08;1777111;80;21122;-51
2020/12/27 06:18:38;;;;;;;0.10;0.10;;;;;;;-4.23;100.00;101656.06;1725875;80;21125;-49
2020/12/27 06:21:19;;;;;;;0.00;0.00;;;;;;;-4.24;100.00;101657.06;1785274;80;21122;-50
2020/12/27 06:23:48;;;;;;;0.00;0.00;;;;;;;-4.23;100.00;101664.89;1757998;80;21165;-49
2020/12/27 06:26:17;;;;;;;0.10;0.10;;;;;;;-4.21;100.00;101674.09;1748660;80;21110;-49
2020/12/27 06:29:08;;;;;;;0.00;0.00;;;;;;;-4.18;100.00;101671.11;1877611;76;24763;-48
2020/12/27 06:31:38;;;;;;;0.30;0.28;;;;;;;-4.22;100.00;101679.94;1805613;78;21118;-47
2020/12/27 06:34:23;;;;;;;0.00;0.00;;;;;;;-4.18;100.00;101676.45;1861397;75;23371;-46
2020/12/27 06:36:52;;;;;;;0.20;0.20;;;;;;;-4.23;100.00;101679.58;1822004;77;21102;-46
2020/12/27 06:39:32;;;;;;;0.90;0.90;;;;;;;-4.15;100.00;101680.18;1826766;76;23383;-46
2020/12/27 06:42:13;;;;;;;0.20;0.20;;;;;;;-4.18;100.00;101683.12;1718067;81;21102;-45
2020/12/27 06:45:01;;;;;;;0.00;0.00;;;;;;;-4.08;100.00;101693.73;1856026;75;26281;-47
2020/12/27 06:47:57;;;;;;;0.10;0.10;;;;;;;-4.08;100.00;101700.41;1813533;77;21467;-46
2020/12/27 06:50:29;;;;;;;;;;;;;;;-4.03;100.00;101712.33;1808915;78;21549;-46
2020/12/27 06:52:58;;;;;;;0.60;0.60;;;;;;;-3.99;100.00;101712.34;1810392;78;20275;-46
2020/12/27 06:56:15;;;;;;;0.80;0.47;;;;;;;-3.89;100.00;101718.95;1845349;75;27839;-46
2020/12/27 06:59:02;;;;;;;0.00;0.00;;;;;;;-3.84;100.00;101715.81;1799083;76;21162;-47
2020/12/27 07:01:31;;;;;;;0.28;0.28;;;;;;;-3.76;100.00;101724.75;1824835;76;21165;-45
2020/12/27 07:04:18;;;;;;;0.10;0.10;;;;;;;-3.67;100.00;101721.64;1831926;76;21513;-46
2020/12/27 07:06:47;;;;;;;0.00;0.00;;;;;;;-3.59;100.00;101720.36;1752141;80;21214;-46
2020/12/27 07:09:22;;;;;;;0.13;0.13;;;;;;;-3.48;100.00;101724.13;1755728;80;21225;-46
2020/12/27 07:12:08;;;;;;;0.10;0.10;;;;;;;-3.38;100.00;101727.20;1700365;79;21206;-46
2020/12/27 07:14:42;;;;;;;0.20;0.20;;;;;;;-3.28;100.00;101730.61;1775043;79;21450;-49
2020/12/27 07:17:13;;;;;;;0.10;0.10;;;;;;;-3.18;100.00;101724.66;1755435;80;21142;-50
2020/12/27 07:19:40;;;;;;;0.10;0.10;;;;;;;-3.08;100.00;101725.89;1755155;80;21174;-49
2020/12/27 07:22:11;;;;;;;0.00;0.00;;;;;;;-2.99;100.00;101721.41;1770510;79;21213;-50
2020/12/27 07:24:40;;;;;;;0.03;0.03;;;;;;;-2.92;100.00;101727.80;1763684;79;21514;-49
2020/12/27 07:27:10;;;;;;;0.10;0.10;;;;;;;-2.85;100.00;101739.54;1792372;78;21125;-50
2020/12/27 07:29:38;;;;;;;0.90;0.30;;;;;;;-2.78;100.00;101733.89;1743502;80;21177;-47
2020/12/27 07:32:05;;;;;;;0.20;0.20;;;;;;;-2.70;100.00;101732.58;1766550;79;21368;-48
2020/12/27 07:34:33;;;;;;;0.10;0.10;;;;;;;-2.61;100.00;101737.48;1781018;78;21210;-47
2020/12/27 07:37:05;;;;;;;0.10;0.10;;;;;;;-2.55;100.00;101730.12;1787717;78;21199;-47
2020/12/27 07:39:56;;;;;;;0.10;0.10;;;;;;;-2.48;100.00;101738.36;1788026;78;21743;-47
2020/12/27 07:42:32;;;;;;;0.45;0.45;;;;;;;-2.41;100.00;101743.41;1778032;78;21136;-47
2020/12/27 07:45:09;;;;;;;0.93;0.60;;;;;;;-2.34;100.00;101744.44;1780324;78;21408;-49
2020/12/27 07:47:40;;;;;;;0.00;0.00;;;;;;;-2.27;100.00;101745.47;1719363;80;21282;-47
2020/12/27 07:50:12;;;;;;;0.00;0.00;;;;;;;-2.14;100.00;101745.50;1772991;78;21273;-48
2020/12/27 07:52:58;;;;;;;0.30;0.30;;;;;;;-2.02;100.00;101752.22;1768713;79;21616;-47
2020/12/27 07:55:37;;;;;;;0.00;0.00;;;;;;;-1.92;100.00;101756.92;1782918;79;21154;-49
2020/12/27 07:58:05;;;;;;;0.20;0.20;;;;;;;-1.79;100.00;101761.28;1771198;80;21153;-50
2020/12/27 08:00:36;;;;;;;0.03;0.03;;;;;;;-1.66;100.00;101756.76;1763979;79;21141;-49
2020/12/27 08:03:07;;;;;;;1.20;0.33;;;;;;;-1.55;100.00;101763.65;1767520;79;21167;-52
2020/12/27 08:05:38;;;;;;;0.05;0.05;;;;;;;-1.43;100.00;101762.31;1740077;80;21202;-48
2020/12/27 08:08:08;;;;;;;0.15;0.15;;;;;;;-1.35;100.00;101760.95;1771466;79;21158;-49
2020/12/27 08:10:35;;;;;;;0.78;0.78;;;;;;;-1.24;100.00;101758.42;1762649;79;21209;-50
2020/12/27 08:13:04;;;;;;;0.00;0.00;;;;;;;-1.16;100.00;101758.94;1770734;80;21190;-49
2020/12/27 08:15:37;;;;;;;0.10;0.10;;;;;;;-1.08;100.00;101762.94;1757703;79;21600;-49
2020/12/27 08:18:06;;;;;;;0.00;0.00;;;;;;;-0.99;100.00;101763.27;1771965;79;21735;-50
2020/12/27 08:20:46;;;;;;;1.60;0.85;;;;;;;-0.89;100.00;101761.70;1772690;79;21222;-49
2020/12/27 08:23:13;;;;;;;0.10;0.10;;;;;;;-0.81;100.00;101756.84;1768869;79;21619;-49
2020/12/27 08:25:41;;;;;;;0.00;0.00;;;;;;;-0.72;99.81;101759.81;1766596;80;21525;-49
2020/12/27 08:28:12;;;;;;;0.20;0.20;;;;;;;-0.62;99.44;101763.64;1768619;79;21257;-50
2020/12/27 08:30:39;;;;;;;0.23;0.23;;;;;;;-0.56;99.01;101761.11;1758505;79;21138;-49
2020/12/27 08:33:13;;;;;;;0.20;0.20;;;;;;;-0.48;98.74;101761.06;1798045;78;21137;-49
2020/12/27 08:35:43;;;;;;;0.00;0.00;;;;;;;-0.40;98.44;101768.76;1753945;80;21159;-51
2020/12/27 08:38:22;;;;;;;0.15;0.15;;;;;;;-0.31;98.02;101774.44;1759657;80;21150;-49
2020/12/27 08:41:14;;;;;;;0.42;0.42;;;;;;;-0.25;97.44;101771.89;1757184;80;21222;-50
2020/12/27 08:44:18;;;;;;;0.30;0.30;;;;;;;-0.19;96.95;101769.52;1788233;78;21115;-50
2020/12/27 08:46:49;;;;;;;0.10;0.10;;;;;;;-0.14;96.49;101763.10;1760341;79;21450;-51
2020/12/27 08:49:52;;;;;;;0.10;0.10;;;;;;;-0.10;95.54;101763.92;1756614;79;21176;-50
2020/12/27 08:52:24;;;;;;;0.00;0.00;;;;;;;-0.08;94.65;101759.18;1751351;79;21209;-51
2020/12/27 08:54:56;;;;;;;0.10;0.10;;;;;;;-0.03;94.51;101759.99;1797389;78;21609;-50
2020/12/27 08:57:24;;;;;;;;;;;;;;;0.03;94.47;101760.65;1766753;79;21125;-49
2020/12/27 09:00:10;;;;;;;0.05;0.05;;;;;;;0.10;94.17;101763.44;1770170;79;20281;-49
2020/12/27 09:02:38;;;;;;;0.00;0.00;;;;;;;0.16;93.73;101760.05;1745074;80;21191;-50
2020/12/27 09:05:11;;;;;;;0.08;0.08;;;;;;;0.23;93.29;101754.80;1774685;80;21430;-49
2020/12/27 09:07:44;;;;;;;0.00;0.00;;;;;;;0.30;92.60;101753.91;1749153;79;21105;-49
2020/12/27 09:10:22;;;;;;;0.00;0.00;;;;;;;0.35;91.67;101756.89;1764654;80;21192;-50
2020/12/27 09:13:10;;;;;;;0.10;0.10;;;;;;;0.39;91.13;101764.91;1778928;79;21714;-48
2020/12/27 09:15:47;;;;;;;0.10;0.10;;;;;;;0.42;90.63;101763.22;1756360;80;21409;-50
2020/12/27 09:18:17;;;;;;;0.00;0.00;;;;;;;0.46;90.09;101754.27;1753305;78;21158;-51
2020/12/27 09:20:45;;;;;;;0.00;0.00;;;;;;;0.50;89.64;101761.48;1763121;79;21142;-50
2020/12/27 09:23:17;;;;;;;0.17;0.17;;;;;;;0.54;89.18;101763.61;1760455;79;21150;-52
2020/12/27 09:25:46;;;;;;;0.40;0.40;;;;;;;0.61;89.00;101763.73;1754169;79;21153;-49
2020/12/27 09:28:20;;;;;;;0.20;0.20;;;;;;;0.65;88.50;101765.05;1782088;78;21112;-49
2020/12/27 09:31:05;;;;;;;1.07;0.30;;;;;;;0.70;87.66;101773.41;1761762;78;21179;-47
2020/12/27 09:33:39;;;;;;;0.00;0.00;;;;;;;0.75;87.11;101768.83;1754148;80;21775;-50
2020/12/27 09:36:10;;;;;;;0.10;0.10;;;;;;;0.77;86.50;101771.67;1737098;81;22147;-48
2020/12/27 09:38:39;;;;;;;1.35;0.68;;;;;;;0.78;86.16;101767.95;1733817;80;21224;-48
2020/12/27 09:41:15;;;;;;;0.40;0.40;;;;;;;0.80;85.92;101771.30;1764955;79;21603;-49
2020/12/27 09:43:55;;;;;;;0.20;0.20;;;;;;;0.82;85.35;101769.78;1768678;80;21521;-51
2020/12/27 09:46:49;;;;;;;0.65;0.65;;;;;;;0.84;85.08;101775.79;1785560;80;21067;-49
2020/12/27 09:49:29;;;;;;;0.45;0.10;;;;;;;0.88;84.19;101778.97;1763199;80;21227;-49
2020/12/27 09:52:07;;;;;;;0.10;0.10;;;;;;;0.89;83.87;101779.28;1789933;78;21126;-51
2020/12/27 09:54:35;;;;;;;2.05;1.45;;;;;;;0.90;83.44;101783.66;1812643;78;21206;-49
2020/12/27 09:57:21;;;;;;;0.57;0.55;;;;;;;0.93;82.92;101784.64;1806388;78;21118;-49
2020/12/27 09:59:51;;;;;;;0.10;0.10;;;;;;;0.96;82.05;101790.99;1778183;77;21257;-48
2020/12/27 10:02:21;;;;;;;0.25;0.25;;;;;;;0.99;81.89;101789.27;1769131;80;21624;-48
2020/12/27 10:04:48;;;;;;;0.20;0.10;;;;;;;1.00;81.50;101793.66;1771841;80;21138;-49
2020/12/27 10:07:16;;;;;;;0.00;0.00;;;;;;;1.00;81.21;101797.69;1804685;78;21130;-49
2020/12/27 10:09:43;;;;;;;0.33;0.33;;;;;;;1.01;80.87;101795.31;1789788;78;21133;-50
2020/12/27 10:12:11;;;;;;;0.68;0.68;;;;;;;1.00;80.96;101790.45;1767480;80;21129;-48
2020/12/27 10:14:39;;;;;;;0.00;0.00;;;;;;;1.00;80.77;101797.69;1799216;78;21236;-50
2020/12/27 10:17:07;;;;;;;0.00;0.00;;;;;;;1.00;80.35;101798.52;1806504;78;21246;-48
2020/12/27 10:19:34;;;;;;;0.00;0.00;;;;;;;1.02;80.48;101788.93;1745676;81;21183;-47
2020/12/27 10:22:02;;;;;;;0.30;0.30;;;;;;;1.01;80.56;101791.28;1755450;81;21177;-50
2020/12/27 10:24:33;;;;;;;0.80;0.30;;;;;;;1.02;80.22;101780.34;1777895;80;21554;-50
2020/12/27 10:27:02;;;;;;;0.00;0.00;;;;;;;1.06;80.05;101779.45;1752403;80;21453;-50
2020/12/27 10:29:30;;;;;;;0.00;0.00;;;;;;;1.08;79.63;101775.55;1772343;80;21155;-48
2020/12/27 10:32:03;;;;;;;0.40;0.40;;;;;;;1.12;79.22;101776.55;1811437;78;21142;-49
2020/12/27 10:34:31;;;;;;;1.37;0.45;;;;;;;1.14;79.05;101770.44;1769095;79;21163;-49
2020/12/27 10:36:59;;;;;;;0.00;0.00;;;;;;;1.13;79.05;101764.23;1763858;79;21215;-50
2020/12/27 10:39:27;;;;;;;0.00;0.00;;;;;;;1.12;78.95;101762.57;1745383;81;21155;-48
2020/12/27 10:41:56;;;;;;;0.13;0.13;;;;;;;1.12;78.70;101765.78;1748398;81;21147;-49
2020/12/27 10:44:24;;;;;;;0.00;0.00;;;;;;;1.13;78.77;101762.88;1742762;81;21644;-49
2020/12/27 10:46:52;;;;;;;0.25;0.25;;;;;;;1.11;78.72;101771.65;1794305;78;21185;-47
2020/12/27 10:49:21;;;;;;;0.15;0.15;;;;;;;1.09;78.70;101764.30;1762053;80;21182;-49
2020/12/27 10:51:48;;;;;;;0.50;0.30;;;;;;;1.06;78.51;101760.60;1811288;78;21162;-47
2020/12/27 10:54:16;;;;;;;0.00;0.00;;;;;;;1.07;78.45;101758.25;1797554;78;21142;-49
2020/12/27 10:56:44;;;;;;;0.28;0.28;;;;;;;1.05;78.83;101757.59;1764632;78;21647;-48
2020/12/27 10:59:14;;;;;;;0.90;0.90;;;;;;;1.01;78.48;101761.16;1805368;78;21126;-48
2020/12/27 11:01:49;;;;;;;0.55;0.55;;;;;;;1.03;78.63;101762.33;1813264;78;21438;-49
2020/12/27 11:04:16;;;;;;;0.10;0.10;;;;;;;1.01;78.99;101750.90;1803156;78;21145;-49
2020/12/27 11:06:44;;;;;;;0.10;0.10;;;;;;;0.96;79.45;101753.31;1801455;78;21154;-49
2020/12/27 11:09:11;;;;;;;0.00;0.00;;;;;;;0.90;79.94;101741.95;1790517;78;21170;-49
2020/12/27 11:11:39;;;;;;;0.40;0.40;;;;;;;0.83;80.44;101735.11;1809402;78;21254;-49
2020/12/27 11:14:07;;;;;;;0.08;0.08;;;;;;;0.77;80.87;101725.09;1781602;80;21443;-49
2020/12/27 11:16:35;;;;;;;6.50;1.05;;;;;;;0.73;81.04;101725.95;1803145;78;21133;-50
2020/12/27 11:19:02;;;;;;;0.00;0.00;;;;;;;0.71;80.82;101735.23;1808238;78;21150;-48
2020/12/27 11:21:30;;;;;;;0.00;0.00;;;;;;;0.73;80.62;101731.85;1780903;80;21567;-48
2020/12/27 11:23:58;;;;;;;0.80;0.62;;;;;;;0.73;80.74;101726.47;1779087;78;21628;-51
2020/12/27 11:26:25;;;;;;;2.22;1.07;;;;;;;0.71;80.96;101725.30;1769286;78;21514;-48
2020/12/27 11:28:52;;;;;;;0.40;0.40;;;;;;;0.68;81.14;101725.67;1788086;78;21206;-49
2020/12/27 11:31:20;;;;;;;0.23;0.23;;;;;;;0.68;81.44;101722.98;1794011;78;21165;-50
2020/12/27 11:33:48;;;;;;;0.45;0.45;;;;;;;0.71;81.91;101709.16;1798502;79;21111;-48
2020/12/27 11:36:15;;;;;;;0.23;0.23;;;;;;;0.72;82.08;101709.50;1777688;78;21127;-48
2020/12/27 11:38:43;;;;;;;0.10;0.10;;;;;;;0.73;82.50;101714.36;1779954;78;21791;-48
2020/12/27 11:41:13;;;;;;;0.70;0.15;;;;;;;0.81;82.57;101727.20;1802839;78;21564;-49
2020/12/27 11:43:41;;;;;;;1.20;1.07;;;;;;;0.84;82.27;101725.52;1749928;81;21212;-48
2020/12/27 11:46:09;;;;;;;0.90;0.90;;;;;;;0.93;82.44;101726.25;1756637;79;21205;-48
2020/12/27 11:48:36;;;;;;;0.35;0.35;;;;;;;0.96;82.59;101721.84;1760101;80;21255;-48